sensor_id;sensor_type;location;lat;lon;timestamp;pressure;altitude;pressure_sealevel;temperature;humidity
39301;BME280;25019;42.626;23.380;2023-04-08T00:02:19;94418.94;;;3.48;86.04
39301;BME280;25019;42.626;23.380;2023-04-08T00:04:45;94433.50;;;3.57;86.17
39301;BME280;25019;42.626;23.380;2023-04-08T00:07:10;94458.94;;;3.56;86.43
39301;BME280;25019;42.626;23.380;2023-04-08T00:09:36;94495.50;;;3.78;86.94
39301;BME280;25019;42.626;23.380;2023-04-08T00:12:03;94496.28;;;3.85;86.38
39301;BME280;25019;42.626;23.380;2023-04-08T00:14:29;94493.28;;;3.82;86.56
39301;BME280;25019;42.626;23.380;2023-04-08T00:16:54;94507.63;;;3.86;86.47
39301;BME280;25019;42.626;23.380;2023-04-08T00:19:20;94509.63;;;3.77;86.61
39301;BME280;25019;42.626;23.380;2023-04-08T00:21:46;94452.88;;;3.29;87.50
39301;BME280;25019;42.626;23.380;2023-04-08T00:24:12;94391.25;;;2.84;87.99
39301;BME280;25019;42.626;23.380;2023-04-08T00:26:38;94504.19;;;3.58;87.41
39301;BME280;25019;42.626;23.380;2023-04-08T00:29:04;94496.50;;;3.50;87.69
39301;BME280;25019;42.626;23.380;2023-04-08T00:31:29;94514.50;;;3.60;87.69
39301;BME280;25019;42.626;23.380;2023-04-08T00:33:55;94509.22;;;3.53;87.61
39301;BME280;25019;42.626;23.380;2023-04-08T00:36:22;94487.00;;;3.42;87.66
39301;BME280;25019;42.626;23.380;2023-04-08T00:38:50;94513.28;;;3.56;87.56
39301;BME280;25019;42.626;23.380;2023-04-08T00:41:16;94492.25;;;3.42;87.77
39301;BME280;25019;42.626;23.380;2023-04-08T00:43:42;94512.25;;;3.50;88.04
39301;BME280;25019;42.626;23.380;2023-04-08T00:46:08;94517.72;;;3.49;88.64
39301;BME280;25019;42.626;23.380;2023-04-08T00:48:34;94517.72;;;3.49;88.52
39301;BME280;25019;42.626;23.380;2023-04-08T00:50:59;94516.50;;;3.51;88.70
39301;BME280;25019;42.626;23.380;2023-04-08T00:53:25;94523.78;;;3.56;88.75
39301;BME280;25019;42.626;23.380;2023-04-08T00:55:51;94513.09;;;3.51;88.74
39301;BME280;25019;42.626;23.380;2023-04-08T00:58:17;94518.53;;;3.56;88.25
39301;BME280;25019;42.626;23.380;2023-04-08T01:00:46;94375.31;;;2.66;88.26
39301;BME280;25019;42.626;23.380;2023-04-08T01:03:19;94517.53;;;3.57;88.34
39301;BME280;25019;42.626;23.380;2023-04-08T01:08:34;94509.84;;;3.55;88.36
39301;BME280;25019;42.626;23.380;2023-04-08T01:11:02;94521.78;;;3.65;87.90
39301;BME280;25019;42.626;23.380;2023-04-08T01:13:33;94413.91;;;2.92;87.44
39301;BME280;25019;42.626;23.380;2023-04-08T01:16:02;94516.72;;;3.63;87.12
39301;BME280;25019;42.626;23.380;2023-04-08T01:18:28;94511.06;;;3.66;87.38
39301;BME280;25019;42.626;23.380;2023-04-08T01:20:56;94516.91;;;3.62;86.49
39301;BME280;25019;42.626;23.380;2023-04-08T01:25:58;94479.34;;;3.41;87.22
39301;BME280;25019;42.626;23.380;2023-04-08T01:28:28;94440.75;;;3.14;87.62
39301;BME280;25019;42.626;23.380;2023-04-08T01:30:58;94514.69;;;3.58;87.94
39301;BME280;25019;42.626;23.380;2023-04-08T01:33:26;94497.50;;;3.49;87.96
39301;BME280;25019;42.626;23.380;2023-04-08T01:35:54;94516.72;;;3.63;88.41
39301;BME280;25019;42.626;23.380;2023-04-08T01:38:23;94515.91;;;3.63;88.33
39301;BME280;25019;42.626;23.380;2023-04-08T01:40:52;94513.91;;;3.65;88.99
39301;BME280;25019;42.626;23.380;2023-04-08T01:43:18;94494.28;;;3.54;89.25
39301;BME280;25019;42.626;23.380;2023-04-08T01:45:46;94447.63;;;3.29;89.36
39301;BME280;25019;42.626;23.380;2023-04-08T01:48:13;94506.63;;;3.60;89.96
39301;BME280;25019;42.626;23.380;2023-04-08T01:50:41;94516.72;;;3.63;90.31
39301;BME280;25019;42.626;23.380;2023-04-08T01:53:08;94519.16;;;3.65;90.50
39301;BME280;25019;42.626;23.380;2023-04-08T01:55:36;94524.19;;;3.46;90.23
39301;BME280;25019;42.626;23.380;2023-04-08T01:58:04;94525.00;;;3.53;90.46
39301;BME280;25019;42.626;23.380;2023-04-08T02:00:33;94535.31;;;3.55;90.36
39301;BME280;25019;42.626;23.380;2023-04-08T02:03:01;94527.44;;;3.55;90.06
39301;BME280;25019;42.626;23.380;2023-04-08T02:05:28;94485.00;;;3.31;89.43
39301;BME280;25019;42.626;23.380;2023-04-08T02:07:53;94538.34;;;3.58;87.96
39301;BME280;25019;42.626;23.380;2023-04-08T02:10:19;94536.72;;;3.57;86.69
39301;BME280;25019;42.626;23.380;2023-04-08T02:12:45;94463.75;;;3.12;86.04
39301;BME280;25019;42.626;23.380;2023-04-08T02:15:11;94522.78;;;3.57;85.54
39301;BME280;25019;42.626;23.380;2023-04-08T02:20:17;94538.34;;;3.45;87.73
39301;BME280;25019;42.626;23.380;2023-04-08T02:22:52;94538.50;;;3.30;88.32
39301;BME280;25019;42.626;23.380;2023-04-08T02:25:24;94535.66;;;3.32;89.05
39301;BME280;25019;42.626;23.380;2023-04-08T02:27:51;94538.28;;;3.32;89.37
39301;BME280;25019;42.626;23.380;2023-04-08T02:30:18;94539.53;;;3.36;89.01
39301;BME280;25019;42.626;23.380;2023-04-08T02:32:46;94538.72;;;3.42;88.63
39301;BME280;25019;42.626;23.380;2023-04-08T02:35:14;94537.72;;;3.43;88.41
39301;BME280;25019;42.626;23.380;2023-04-08T02:37:40;94533.25;;;3.50;88.26
39301;BME280;25019;42.626;23.380;2023-04-08T02:40:29;94537.94;;;3.55;87.72
39301;BME280;25019;42.626;23.380;2023-04-08T02:42:56;94401.75;;;2.71;87.22
39301;BME280;25019;42.626;23.380;2023-04-08T02:45:31;94531.88;;;3.61;87.32
39301;BME280;25019;42.626;23.380;2023-04-08T02:47:59;94482.97;;;3.20;86.45
39301;BME280;25019;42.626;23.380;2023-04-08T02:50:25;94494.06;;;3.22;87.40
39301;BME280;25019;42.626;23.380;2023-04-08T02:52:51;94474.25;;;3.12;87.17
39301;BME280;25019;42.626;23.380;2023-04-08T02:55:17;94538.13;;;3.53;87.60
39301;BME280;25019;42.626;23.380;2023-04-08T02:57:42;94535.31;;;3.55;87.71
39301;BME280;25019;42.626;23.380;2023-04-08T03:00:08;94488.41;;;3.25;87.23
39301;BME280;25019;42.626;23.380;2023-04-08T03:02:34;94522.38;;;3.47;86.83
39301;BME280;25019;42.626;23.380;2023-04-08T03:05:00;94471.06;;;3.17;87.33
39301;BME280;25019;42.626;23.380;2023-04-08T03:07:26;94472.06;;;3.23;87.20
39301;BME280;25019;42.626;23.380;2023-04-08T03:09:53;94536.72;;;3.64;87.07
39301;BME280;25019;42.626;23.380;2023-04-08T03:12:20;94541.56;;;3.67;86.02
39301;BME280;25019;42.626;23.380;2023-04-08T03:14:45;94537.13;;;3.68;86.18
39301;BME280;25019;42.626;23.380;2023-04-08T03:17:11;94533.69;;;3.67;85.45
39301;BME280;25019;42.626;23.380;2023-04-08T03:19:36;94545.22;;;3.73;85.53
39301;BME280;25019;42.626;23.380;2023-04-08T03:22:02;94535.13;;;3.70;85.53
39301;BME280;25019;42.626;23.380;2023-04-08T03:24:28;94518.75;;;3.61;85.59
39301;BME280;25019;42.626;23.380;2023-04-08T03:26:53;94470.44;;;3.28;85.32
39301;BME280;25019;42.626;23.380;2023-04-08T03:29:19;94541.59;;;3.74;85.59
39301;BME280;25019;42.626;23.380;2023-04-08T03:31:45;94543.78;;;3.77;85.21
39301;BME280;25019;42.626;23.380;2023-04-08T03:34:10;94546.22;;;3.79;85.40
39301;BME280;25019;42.626;23.380;2023-04-08T03:36:36;94544.41;;;3.79;85.60
39301;BME280;25019;42.626;23.380;2023-04-08T03:39:02;94466.00;;;3.22;85.52
39301;BME280;25019;42.626;23.380;2023-04-08T03:41:28;94536.94;;;3.76;85.92
39301;BME280;25019;42.626;23.380;2023-04-08T03:43:54;94545.22;;;3.73;86.61
39301;BME280;25019;42.626;23.380;2023-04-08T03:46:20;94549.25;;;3.75;86.44
39301;BME280;25019;42.626;23.380;2023-04-08T03:48:47;94449.63;;;3.13;86.81
39301;BME280;25019;42.626;23.380;2023-04-08T03:51:12;94543.00;;;3.77;86.66
39301;BME280;25019;42.626;23.380;2023-04-08T03:53:38;94546.00;;;3.80;86.84
39301;BME280;25019;42.626;23.380;2023-04-08T03:56:04;94537.94;;;3.75;86.90
39301;BME280;25019;42.626;23.380;2023-04-08T03:58:30;94543.78;;;3.77;86.72
39301;BME280;25019;42.626;23.380;2023-04-08T04:00:56;94468.03;;;3.34;87.36
39301;BME280;25019;42.626;23.380;2023-04-08T04:03:22;94516.31;;;3.66;87.33
39301;BME280;25019;42.626;23.380;2023-04-08T04:05:48;94529.66;;;3.71;87.14
39301;BME280;25019;42.626;23.380;2023-04-08T04:08:13;94490.84;;;3.47;87.50
39301;BME280;25019;42.626;23.380;2023-04-08T04:25:41;94558.97;;;3.75;88.01
39301;BME280;25019;42.626;23.380;2023-04-08T04:28:07;94539.94;;;3.59;88.07
39301;BME280;25019;42.626;23.380;2023-04-08T04:30:38;94547.63;;;3.54;88.72
39301;BME280;25019;42.626;23.380;2023-04-08T04:33:04;94557.16;;;3.62;88.56
39301;BME280;25019;42.626;23.380;2023-04-08T04:35:30;94469.81;;;3.06;89.41
39301;BME280;25019;42.626;23.380;2023-04-08T04:37:56;94549.25;;;3.62;88.89
39301;BME280;25019;42.626;23.380;2023-04-08T04:40:22;94536.50;;;3.52;89.10
39301;BME280;25019;42.626;23.380;2023-04-08T04:42:47;94551.69;;;3.64;88.66
39301;BME280;25019;42.626;23.380;2023-04-08T04:45:13;94544.59;;;3.57;89.18
39301;BME280;25019;42.626;23.380;2023-04-08T04:47:39;94488.03;;;3.28;88.65
39301;BME280;25019;42.626;23.380;2023-04-08T04:50:05;94549.88;;;3.71;88.57
39301;BME280;25019;42.626;23.380;2023-04-08T04:52:31;94550.88;;;3.77;88.62
39301;BME280;25019;42.626;23.380;2023-04-08T04:54:59;94548.84;;;3.79;88.01
39301;BME280;25019;42.626;23.380;2023-04-08T04:57:25;94556.91;;;3.77;88.13
39301;BME280;25019;42.626;23.380;2023-04-08T04:59:51;94513.88;;;3.51;87.91
39301;BME280;25019;42.626;23.380;2023-04-08T05:02:16;94551.91;;;3.89;87.57
39301;BME280;25019;42.626;23.380;2023-04-08T05:04:42;94558.16;;;4.01;87.43
39301;BME280;25019;42.626;23.380;2023-04-08T05:07:07;94507.00;;;3.70;86.09
39301;BME280;25019;42.626;23.380;2023-04-08T05:09:33;94558.94;;;4.09;86.73
39301;BME280;25019;42.626;23.380;2023-04-08T05:11:59;94567.22;;;4.19;86.41
39301;BME280;25019;42.626;23.380;2023-04-08T05:14:24;94559.94;;;4.28;85.82
39301;BME280;25019;42.626;23.380;2023-04-08T05:16:53;94561.97;;;4.32;85.29
39301;BME280;25019;42.626;23.380;2023-04-08T05:19:19;94552.84;;;4.42;84.64
39301;BME280;25019;42.626;23.380;2023-04-08T05:21:44;94558.69;;;4.50;84.05
39301;BME280;25019;42.626;23.380;2023-04-08T05:24:10;94534.22;;;4.43;83.80
39301;BME280;25019;42.626;23.380;2023-04-08T05:26:36;94486.34;;;4.14;83.55
39301;BME280;25019;42.626;23.380;2023-04-08T05:29:02;94498.06;;;4.25;83.13
39301;BME280;25019;42.626;23.380;2023-04-08T05:31:28;94560.59;;;4.82;83.13
39301;BME280;25019;42.626;23.380;2023-04-08T05:33:53;94535.53;;;4.79;82.74
39301;BME280;25019;42.626;23.380;2023-04-08T05:36:19;94560.13;;;5.05;82.07
39301;BME280;25019;42.626;23.380;2023-04-08T05:38:45;94562.44;;;5.27;83.07
39301;BME280;25019;42.626;23.380;2023-04-08T05:41:10;94561.50;;;5.47;82.85
39301;BME280;25019;42.626;23.380;2023-04-08T05:43:36;94502.88;;;5.26;80.00
39301;BME280;25019;42.626;23.380;2023-04-08T05:46:08;94566.78;;;5.79;79.40
39301;BME280;25019;42.626;23.380;2023-04-08T05:48:37;94540.91;;;5.69;79.62
39301;BME280;25019;42.626;23.380;2023-04-08T05:51:03;94527.72;;;5.69;78.19
39301;BME280;25019;42.626;23.380;2023-04-08T05:53:28;94541.94;;;5.93;78.10
39301;BME280;25019;42.626;23.380;2023-04-08T05:55:57;94555.97;;;5.87;78.14
39301;BME280;25019;42.626;23.380;2023-04-08T05:58:23;94557.53;;;5.95;77.29
39301;BME280;25019;42.626;23.380;2023-04-08T06:00:48;94457.59;;;5.17;77.75
39301;BME280;25019;42.626;23.380;2023-04-08T06:03:14;94554.72;;;5.90;77.48
39301;BME280;25019;42.626;23.380;2023-04-08T06:05:40;94558.56;;;5.94;77.60
39301;BME280;25019;42.626;23.380;2023-04-08T06:08:05;94485.91;;;5.22;79.02
39301;BME280;25019;42.626;23.380;2023-04-08T06:10:31;94558.34;;;5.70;79.90
39301;BME280;25019;42.626;23.380;2023-04-08T06:12:56;94564.97;;;5.79;79.43
39301;BME280;25019;42.626;23.380;2023-04-08T06:15:22;94558.38;;;5.89;78.20
39301;BME280;25019;42.626;23.380;2023-04-08T06:17:48;94555.31;;;5.92;77.10
39301;BME280;25019;42.626;23.380;2023-04-08T06:20:13;94536.47;;;5.69;78.41
39301;BME280;25019;42.626;23.380;2023-04-08T06:22:39;94505.34;;;5.53;76.20
39301;BME280;25019;42.626;23.380;2023-04-08T06:25:05;94548.81;;;5.69;74.73
39301;BME280;25019;42.626;23.380;2023-04-08T06:27:31;94556.75;;;5.94;74.65
39301;BME280;25019;42.626;23.380;2023-04-08T06:29:57;94554.78;;;5.83;76.63
39301;BME280;25019;42.626;23.380;2023-04-08T06:32:23;94547.41;;;5.92;75.82
39301;BME280;25019;42.626;23.380;2023-04-08T06:34:49;94557.84;;;6.12;74.07
39301;BME280;25019;42.626;23.380;2023-04-08T06:37:14;94503.00;;;5.95;75.00
39301;BME280;25019;42.626;23.380;2023-04-08T06:39:40;94516.75;;;6.23;74.50
39301;BME280;25019;42.626;23.380;2023-04-08T06:42:08;94574.81;;;6.41;76.17
39301;BME280;25019;42.626;23.380;2023-04-08T06:44:55;94569.44;;;6.29;78.07
39301;BME280;25019;42.626;23.380;2023-04-08T06:47:21;94535.38;;;6.28;76.96
39301;BME280;25019;42.626;23.380;2023-04-08T06:49:47;94571.63;;;6.58;76.63
39301;BME280;25019;42.626;23.380;2023-04-08T06:52:12;94562.16;;;6.87;76.66
39301;BME280;25019;42.626;23.380;2023-04-08T06:54:38;94559.97;;;7.03;74.91
39301;BME280;25019;42.626;23.380;2023-04-08T06:57:03;94496.63;;;6.66;74.31
39301;BME280;25019;42.626;23.380;2023-04-08T06:59:29;94550.81;;;6.87;73.58
39301;BME280;25019;42.626;23.380;2023-04-08T07:01:55;94545.00;;;6.97;74.13
39301;BME280;25019;42.626;23.380;2023-04-08T07:04:20;94563.19;;;7.35;73.23
39301;BME280;25019;42.626;23.380;2023-04-08T07:06:46;94520.06;;;6.93;73.53
39301;BME280;25019;42.626;23.380;2023-04-08T07:09:12;94553.72;;;7.46;71.76
39301;BME280;25019;42.626;23.380;2023-04-08T07:11:37;94502.06;;;7.01;71.85
39301;BME280;25019;42.626;23.380;2023-04-08T07:14:03;94562.25;;;7.60;71.33
39301;BME280;25019;42.626;23.380;2023-04-08T07:16:29;94555.34;;;7.90;71.25
39301;BME280;25019;42.626;23.380;2023-04-08T07:18:54;94548.78;;;7.92;70.16
39301;BME280;25019;42.626;23.380;2023-04-08T07:21:21;94532.00;;;7.99;69.92
39301;BME280;25019;42.626;23.380;2023-04-08T07:23:47;94562.72;;;8.12;69.87
39301;BME280;25019;42.626;23.380;2023-04-08T07:26:12;94566.06;;;8.19;69.04
39301;BME280;25019;42.626;23.380;2023-04-08T07:28:38;94506.59;;;7.98;68.86
39301;BME280;25019;42.626;23.380;2023-04-08T07:31:15;94512.56;;;7.93;69.25
39301;BME280;25019;42.626;23.380;2023-04-08T07:33:41;94575.50;;;8.74;67.37
39301;BME280;25019;42.626;23.380;2023-04-08T07:36:12;94556.81;;;9.05;66.72
39301;BME280;25019;42.626;23.380;2023-04-08T07:38:38;94568.97;;;9.29;64.82
39301;BME280;25019;42.626;23.380;2023-04-08T07:41:04;94520.47;;;8.76;65.50
39301;BME280;25019;42.626;23.380;2023-04-08T07:43:31;94574.19;;;9.12;64.75
39301;BME280;25019;42.626;23.380;2023-04-08T07:46:00;94575.25;;;9.69;64.12
39301;BME280;25019;42.626;23.380;2023-04-08T07:48:30;94578.16;;;9.85;62.73
39301;BME280;25019;42.626;23.380;2023-04-08T07:50:56;94564.28;;;10.12;60.48
39301;BME280;25019;42.626;23.380;2023-04-08T07:53:22;94531.38;;;10.13;59.83
39301;BME280;25019;42.626;23.380;2023-04-08T07:55:52;94592.94;;;10.44;59.66
39301;BME280;25019;42.626;23.380;2023-04-08T07:58:18;94573.38;;;10.33;59.94
39301;BME280;25019;42.626;23.380;2023-04-08T08:00:43;94590.31;;;10.83;58.49
39301;BME280;25019;42.626;23.380;2023-04-08T08:03:09;94590.03;;;11.02;57.47
39301;BME280;25019;42.626;23.380;2023-04-08T08:05:35;94587.41;;;11.24;56.35
39301;BME280;25019;42.626;23.380;2023-04-08T08:08:01;94586.69;;;11.12;56.70
39301;BME280;25019;42.626;23.380;2023-04-08T08:10:27;94544.91;;;10.28;56.75
39301;BME280;25019;42.626;23.380;2023-04-08T08:12:53;94603.00;;;10.59;57.40
39301;BME280;25019;42.626;23.380;2023-04-08T08:15:18;94585.16;;;10.76;56.54
39301;BME280;25019;42.626;23.380;2023-04-08T08:17:44;94548.66;;;10.67;55.83
39301;BME280;25019;42.626;23.380;2023-04-08T08:20:10;94592.31;;;11.37;55.04
39301;BME280;25019;42.626;23.380;2023-04-08T08:22:36;94587.50;;;11.57;54.23
39301;BME280;25019;42.626;23.380;2023-04-08T08:25:04;94589.47;;;11.44;54.51
39301;BME280;25019;42.626;23.380;2023-04-08T08:27:30;94594.97;;;11.15;55.62
39301;BME280;25019;42.626;23.380;2023-04-08T08:29:58;94592.53;;;11.31;55.66
39301;BME280;25019;42.626;23.380;2023-04-08T08:32:25;94583.19;;;11.28;54.39
39301;BME280;25019;42.626;23.380;2023-04-08T08:34:50;94561.66;;;10.85;55.66
39301;BME280;25019;42.626;23.380;2023-04-08T08:37:16;94553.84;;;10.78;54.99
39301;BME280;25019;42.626;23.380;2023-04-08T08:39:42;94541.13;;;10.81;55.09
39301;BME280;25019;42.626;23.380;2023-04-08T08:42:24;94594.03;;;11.04;56.27
39301;BME280;25019;42.626;23.380;2023-04-08T08:44:50;94605.22;;;10.84;57.17
39301;BME280;25019;42.626;23.380;2023-04-08T08:47:16;94550.06;;;10.74;56.75
39301;BME280;25019;42.626;23.380;2023-04-08T08:49:42;94589.94;;;11.36;56.38
39301;BME280;25019;42.626;23.380;2023-04-08T08:52:08;94553.47;;;11.09;57.25
39301;BME280;25019;42.626;23.380;2023-04-08T08:54:34;94591.91;;;11.23;58.33
39301;BME280;25019;42.626;23.380;2023-04-08T08:57:00;94617.91;;;10.99;57.07
39301;BME280;25019;42.626;23.380;2023-04-08T08:59:26;94619.56;;;11.05;57.02
39301;BME280;25019;42.626;23.380;2023-04-08T09:01:52;94624.16;;;10.71;59.79
39301;BME280;25019;42.626;23.380;2023-04-08T09:04:19;94614.78;;;10.17;63.02
39301;BME280;25019;42.626;23.380;2023-04-08T09:06:48;94607.75;;;9.94;65.18
39301;BME280;25019;42.626;23.380;2023-04-08T09:09:16;94581.78;;;9.50;67.35
39301;BME280;25019;42.626;23.380;2023-04-08T09:11:44;94617.13;;;9.67;67.72
39301;BME280;25019;42.626;23.380;2023-04-08T09:16:45;94618.19;;;9.83;67.35
39301;BME280;25019;42.626;23.380;2023-04-08T09:19:11;94613.81;;;10.06;65.73
39301;BME280;25019;42.626;23.380;2023-04-08T09:21:38;94609.69;;;10.44;65.09
39301;BME280;25019;42.626;23.380;2023-04-08T09:24:07;94625.59;;;10.61;64.71
39301;BME280;25019;42.626;23.380;2023-04-08T09:26:33;94597.53;;;10.48;63.83
39301;BME280;25019;42.626;23.380;2023-04-08T09:29:07;94611.16;;;10.74;64.52
39301;BME280;25019;42.626;23.380;2023-04-08T09:31:37;94593.63;;;10.73;64.48
39301;BME280;25019;42.626;23.380;2023-04-08T09:34:10;94600.25;;;10.71;63.09
39301;BME280;25019;42.626;23.380;2023-04-08T09:36:37;94596.78;;;10.70;62.66
39301;BME280;25019;42.626;23.380;2023-04-08T09:39:03;94586.13;;;11.09;63.70
39301;BME280;25019;42.626;23.380;2023-04-08T09:41:33;94601.25;;;11.26;62.23
39301;BME280;25019;42.626;23.380;2023-04-08T09:43:59;94591.72;;;11.08;61.69
39301;BME280;25019;42.626;23.380;2023-04-08T09:49:07;94593.56;;;11.07;59.48
39301;BME280;25019;42.626;23.380;2023-04-08T09:52:14;94582.34;;;10.83;60.92
39301;BME280;25019;42.626;23.380;2023-04-08T09:54:44;94587.88;;;10.59;61.33
39301;BME280;25019;42.626;23.380;2023-04-08T09:57:16;94582.72;;;10.53;62.39
39301;BME280;25019;42.626;23.380;2023-04-08T09:59:53;94534.75;;;9.91;62.37
39301;BME280;25019;42.626;23.380;2023-04-08T10:02:28;94576.09;;;10.38;62.42
39301;BME280;25019;42.626;23.380;2023-04-08T10:04:57;94531.38;;;10.30;62.41
39301;BME280;25019;42.626;23.380;2023-04-08T10:07:24;94525.75;;;10.26;62.80
39301;BME280;25019;42.626;23.380;2023-04-08T10:09:50;94511.19;;;9.95;62.54
39301;BME280;25019;42.626;23.380;2023-04-08T10:12:16;94575.94;;;10.28;64.19
39301;BME280;25019;42.626;23.380;2023-04-08T10:17:46;94573.13;;;10.34;64.13
39301;BME280;25019;42.626;23.380;2023-04-08T10:22:59;94574.81;;;10.24;62.55
39301;BME280;25019;42.626;23.380;2023-04-08T10:25:35;94573.38;;;10.16;63.42
39301;BME280;25019;42.626;23.380;2023-04-08T10:30:52;94580.84;;;10.70;63.81
39301;BME280;25019;42.626;23.380;2023-04-08T10:33:31;94529.38;;;10.37;61.04
39301;BME280;25019;42.626;23.380;2023-04-08T10:38:31;94554.47;;;11.30;61.53
39301;BME280;25019;42.626;23.380;2023-04-08T10:40:57;94560.84;;;11.51;63.21
39301;BME280;25019;42.626;23.380;2023-04-08T10:43:23;94502.72;;;11.65;60.11
39301;BME280;25019;42.626;23.380;2023-04-08T10:45:52;94553.41;;;12.08;57.78
39301;BME280;25019;42.626;23.380;2023-04-08T10:48:18;94554.56;;;11.90;59.01
39301;BME280;25019;42.626;23.380;2023-04-08T10:51:03;94498.94;;;11.56;58.09
39301;BME280;25019;42.626;23.380;2023-04-08T10:53:37;94544.88;;;11.79;59.71
39301;BME280;25019;42.626;23.380;2023-04-08T10:56:13;94462.88;;;11.16;57.70
39301;BME280;25019;42.626;23.380;2023-04-08T10:58:53;94495.78;;;10.87;58.91
39301;BME280;25019;42.626;23.380;2023-04-08T11:01:21;94539.84;;;11.28;59.36
39301;BME280;25019;42.626;23.380;2023-04-08T11:03:48;94497.44;;;10.93;59.21
39301;BME280;25019;42.626;23.380;2023-04-08T11:06:14;94486.66;;;10.39;60.10
39301;BME280;25019;42.626;23.380;2023-04-08T11:08:39;94510.84;;;10.82;58.80
39301;BME280;25019;42.626;23.380;2023-04-08T11:11:06;94513.94;;;11.45;57.47
39301;BME280;25019;42.626;23.380;2023-04-08T11:13:44;94527.44;;;12.21;58.00
39301;BME280;25019;42.626;23.380;2023-04-08T11:16:10;94472.03;;;12.18;57.05
39301;BME280;25019;42.626;23.380;2023-04-08T11:18:37;94515.38;;;12.13;56.93
39301;BME280;25019;42.626;23.380;2023-04-08T11:21:08;94524.53;;;12.27;58.73
39301;BME280;25019;42.626;23.380;2023-04-08T11:23:35;94512.88;;;12.34;58.17
39301;BME280;25019;42.626;23.380;2023-04-08T11:26:01;94532.56;;;12.00;56.51
39301;BME280;25019;42.626;23.380;2023-04-08T11:28:27;94525.59;;;11.94;57.52
39301;BME280;25019;42.626;23.380;2023-04-08T11:30:54;94502.19;;;11.96;56.12
39301;BME280;25019;42.626;23.380;2023-04-08T11:33:20;94524.97;;;12.52;54.26
39301;BME280;25019;42.626;23.380;2023-04-08T11:35:50;94526.63;;;12.63;54.49
39301;BME280;25019;42.626;23.380;2023-04-08T11:38:16;94511.88;;;12.07;54.23
39301;BME280;25019;42.626;23.380;2023-04-08T11:40:53;94462.47;;;11.89;54.73
39301;BME280;25019;42.626;23.380;2023-04-08T11:43:20;94390.50;;;11.36;56.62
39301;BME280;25019;42.626;23.380;2023-04-08T11:45:45;94508.97;;;11.81;55.55
39301;BME280;25019;42.626;23.380;2023-04-08T11:48:13;94497.16;;;11.67;56.64
39301;BME280;25019;42.626;23.380;2023-04-08T11:50:40;94498.38;;;11.54;57.40
39301;BME280;25019;42.626;23.380;2023-04-08T11:53:24;94476.88;;;11.61;56.44
39301;BME280;25019;42.626;23.380;2023-04-08T11:55:50;94485.63;;;11.89;56.23
39301;BME280;25019;42.626;23.380;2023-04-08T11:58:16;94455.75;;;11.81;55.33
39301;BME280;25019;42.626;23.380;2023-04-08T12:00:42;94461.16;;;12.24;54.99
39301;BME280;25019;42.626;23.380;2023-04-08T12:03:08;94484.31;;;12.67;55.52
39301;BME280;25019;42.626;23.380;2023-04-08T12:05:34;94495.94;;;12.55;54.31
39301;BME280;25019;42.626;23.380;2023-04-08T12:08:00;94482.97;;;12.69;54.55
39301;BME280;25019;42.626;23.380;2023-04-08T12:10:27;94409.59;;;11.98;55.40
39301;BME280;25019;42.626;23.380;2023-04-08T12:12:52;94447.06;;;12.29;56.46
39301;BME280;25019;42.626;23.380;2023-04-08T12:15:18;94483.94;;;12.48;54.80
39301;BME280;25019;42.626;23.380;2023-04-08T12:17:44;94411.31;;;12.14;54.03
39301;BME280;25019;42.626;23.380;2023-04-08T12:20:11;94480.56;;;12.68;53.30
39301;BME280;25019;42.626;23.380;2023-04-08T12:22:37;94458.44;;;12.67;52.61
39301;BME280;25019;42.626;23.380;2023-04-08T12:25:03;94422.94;;;12.51;52.46
39301;BME280;25019;42.626;23.380;2023-04-08T12:27:30;94443.78;;;12.70;52.44
39301;BME280;25019;42.626;23.380;2023-04-08T12:29:58;94492.81;;;12.64;53.24
39301;BME280;25019;42.626;23.380;2023-04-08T12:32:24;94482.56;;;12.45;52.83
39301;BME280;25019;42.626;23.380;2023-04-08T12:34:50;94481.16;;;12.80;52.90
39301;BME280;25019;42.626;23.380;2023-04-08T12:37:16;94392.53;;;11.94;54.28
39301;BME280;25019;42.626;23.380;2023-04-08T12:39:42;94438.25;;;12.77;53.58
39301;BME280;25019;42.626;23.380;2023-04-08T12:42:08;94465.00;;;13.08;54.41
39301;BME280;25019;42.626;23.380;2023-04-08T12:44:34;94363.13;;;12.16;55.98
39301;BME280;25019;42.626;23.380;2023-04-08T12:46:59;94470.00;;;12.35;55.92
39301;BME280;25019;42.626;23.380;2023-04-08T12:49:25;94467.16;;;12.52;56.38
39301;BME280;25019;42.626;23.380;2023-04-08T12:51:52;94418.91;;;11.63;57.63
39301;BME280;25019;42.626;23.380;2023-04-08T12:54:18;94476.53;;;11.52;58.03
39301;BME280;25019;42.626;23.380;2023-04-08T12:56:44;94466.59;;;11.15;58.77
39301;BME280;25019;42.626;23.380;2023-04-08T12:59:11;94406.59;;;10.97;58.51
39301;BME280;25019;42.626;23.380;2023-04-08T13:01:36;94455.00;;;11.86;58.03
39301;BME280;25019;42.626;23.380;2023-04-08T13:04:02;94462.47;;;12.27;58.15
39301;BME280;25019;42.626;23.380;2023-04-08T13:06:28;94434.25;;;12.21;56.06
39301;BME280;25019;42.626;23.380;2023-04-08T13:08:54;94452.34;;;12.67;54.67
39301;BME280;25019;42.626;23.380;2023-04-08T13:11:19;94436.88;;;12.16;55.08
39301;BME280;25019;42.626;23.380;2023-04-08T13:13:45;94359.25;;;11.53;56.37
39301;BME280;25019;42.626;23.380;2023-04-08T13:16:17;94396.75;;;11.90;57.18
39301;BME280;25019;42.626;23.380;2023-04-08T13:18:50;94416.66;;;12.20;56.56
39301;BME280;25019;42.626;23.380;2023-04-08T13:21:16;94442.19;;;12.64;55.47
39301;BME280;25019;42.626;23.380;2023-04-08T13:23:42;94360.72;;;12.14;55.53
39301;BME280;25019;42.626;23.380;2023-04-08T13:26:08;94361.09;;;12.39;54.95
39301;BME280;25019;42.626;23.380;2023-04-08T13:28:34;94399.56;;;12.64;53.92
39301;BME280;25019;42.626;23.380;2023-04-08T13:30:59;94395.78;;;12.54;53.95
39301;BME280;25019;42.626;23.380;2023-04-08T13:33:28;94444.13;;;12.89;53.30
39301;BME280;25019;42.626;23.380;2023-04-08T13:35:54;94368.78;;;12.30;53.52